Time;durP1;ratioP1;P1;durP2;ratioP2;P2;SDS_P1;SDS_P2;PMS_P1;PMS_P2;Temp;Humidity;BMP_temperature;BMP_pressure;BME280_temperature;BME280_humidity;BME280_pressure;Samples;Min_cycle;Max_cycle;Signal;HPM_P1;HPM_P2
2023/06/25 00:02:20;;;;;;;9.23;7.77;;;;;;;18.42;88.98;100893.38;5027189;28;20295;-66
2023/06/25 00:04:46;;;;;;;9.70;7.47;;;;;;;18.38;89.18;100895.19;5027055;28;20203;-66
2023/06/25 00:07:13;;;;;;;9.30;7.67;;;;;;;18.28;89.39;100888.13;5021784;28;20203;-66
2023/06/25 00:09:39;;;;;;;10.47;7.87;;;;;;;18.17;89.86;100884.69;5025525;28;20204;-67
2023/06/25 00:12:06;;;;;;;9.70;7.50;;;;;;;18.05;90.85;100882.13;5022057;28;20255;-67
2023/06/25 00:14:33;;;;;;;8.77;7.53;;;;;;;17.94;91.69;100876.84;5026162;28;20567;-67
2023/06/25 00:16:59;;;;;;;10.83;7.83;;;;;;;17.93;91.42;100888.47;5022268;28;20491;-67
2023/06/25 00:19:26;;;;;;;9.03;7.17;;;;;;;17.93;91.15;100890.25;5030038;28;20299;-67
2023/06/25 00:21:53;;;;;;;9.63;7.53;;;;;;;17.83;91.82;100886.78;5024517;28;20795;-67
2023/06/25 00:24:20;;;;;;;9.97;7.83;;;;;;;17.75;92.09;100880.59;5029538;28;20199;-67
2023/06/25 00:26:46;;;;;;;11.97;7.30;;;;;;;17.73;92.88;100880.59;5031519;28;20573;-67
2023/06/25 00:29:13;;;;;;;9.63;7.57;;;;;;;17.64;93.43;100877.09;5030661;28;20694;-67
2023/06/25 00:31:41;;;;;;;11.23;7.90;;;;;;;17.56;93.91;100869.09;5012485;28;20606;-67
2023/06/25 00:34:07;;;;;;;10.73;7.60;;;;;;;17.60;93.99;100870.84;5024855;28;20199;-67
2023/06/25 00:36:36;;;;;;;9.30;7.80;;;;;;;17.59;94.04;100870.84;5031635;28;20238;-67
2023/06/25 00:39:04;;;;;;;11.00;7.63;;;;;;;17.63;93.82;100869.94;5024165;28;20232;-67
2023/06/25 00:41:30;;;;;;;9.67;7.10;;;;;;;17.65;93.61;100868.16;5023351;28;20706;-67
2023/06/25 00:43:58;;;;;;;9.47;7.50;;;;;;;17.65;93.52;100870.81;5031587;28;20200;-67
2023/06/25 00:46:25;;;;;;;8.90;7.23;;;;;;;17.71;93.07;100869.03;5025742;28;20206;-67
2023/06/25 00:48:52;;;;;;;10.07;7.40;;;;;;;17.67;92.85;100863.69;5030082;28;20206;-67
2023/06/25 00:51:21;;;;;;;9.20;6.90;;;;;;;17.70;93.32;100871.72;5022870;28;20393;-67
2023/06/25 00:53:48;;;;;;;9.13;7.40;;;;;;;17.65;92.84;100869.03;5027794;28;20257;-67
2023/06/25 00:56:15;;;;;;;9.13;6.83;;;;;;;17.66;93.23;100869.94;5023625;28;20215;-67
2023/06/25 00:58:42;;;;;;;9.63;7.13;;;;;;;17.61;93.54;100869.03;5027802;28;20199;-67
2023/06/25 01:01:17;;;;;;;8.70;7.30;;;;;;;17.62;93.50;100877.09;5028973;28;20711;-67
2023/06/25 01:03:54;;;;;;;9.53;7.00;;;;;;;17.58;93.89;100871.75;5030673;28;20471;-67
2023/06/25 01:06:33;;;;;;;8.40;6.97;;;;;;;17.49;94.61;100868.25;5008360;28;20250;-67
2023/06/25 01:09:01;;;;;;;8.70;6.67;;;;;;;17.36;95.36;100871.03;5026109;28;20207;-67
2023/06/25 01:11:31;;;;;;;9.77;7.40;;;;;;;17.25;95.72;100868.44;5026953;28;20551;-67
2023/06/25 01:13:57;;;;;;;8.17;6.23;;;;;;;17.18;96.73;100869.34;5013094;28;20241;-67
2023/06/25 01:16:24;;;;;;;9.07;6.90;;;;;;;17.12;97.56;100861.34;5029953;28;20223;-67
2023/06/25 01:18:51;;;;;;;10.73;6.93;;;;;;;17.03;98.16;100864.09;5029026;28;20204;-67
2023/06/25 01:21:31;;;;;;;10.47;7.90;;;;;;;17.00;99.13;100856.06;5028634;28;20273;-67
2023/06/25 01:23:58;;;;;;;8.87;6.70;;;;;;;16.92;99.17;100858.78;5030774;28;20206;-67
2023/06/25 01:26:25;;;;;;;9.33;7.73;;;;;;;16.92;99.20;100862.34;5005065;28;20195;-67
2023/06/25 01:28:55;;;;;;;8.60;6.73;;;;;;;16.99;99.29;100854.28;5029594;28;20250;-67
2023/06/25 01:31:24;;;;;;;9.10;7.50;;;;;;;17.02;100.00;100854.28;5028631;28;20223;-67
2023/06/25 01:33:51;;;;;;;10.03;7.23;;;;;;;17.06;100.00;100854.25;5011107;28;20246;-67
2023/06/25 01:36:17;;;;;;;10.90;7.77;;;;;;;17.07;100.00;100852.47;5007546;28;20216;-67
2023/06/25 01:38:44;;;;;;;9.93;7.50;;;;;;;17.10;100.00;100855.13;5023931;28;20282;-67
2023/06/25 01:41:10;;;;;;;9.40;7.50;;;;;;;16.95;100.00;100853.44;5028358;28;20217;-67
2023/06/25 01:43:37;;;;;;;9.00;7.50;;;;;;;16.88;100.00;100852.56;5020610;28;20208;-67
2023/06/25 01:46:03;;;;;;;9.57;8.00;;;;;;;16.83;100.00;100849.03;5016241;28;20248;-67
2023/06/25 01:48:30;;;;;;;9.83;7.90;;;;;;;16.73;100.00;100849.94;5003355;28;20195;-67
2023/06/25 01:50:57;;;;;;;10.13;7.70;;;;;;;16.64;100.00;100843.72;5030266;28;20261;-67
2023/06/25 01:53:24;;;;;;;10.30;8.13;;;;;;;16.73;100.00;100846.38;5024671;28;20674;-67
2023/06/25 01:55:52;;;;;;;9.37;7.40;;;;;;;16.67;100.00;100846.41;5027881;28;20310;-67
2023/06/25 01:58:18;;;;;;;10.07;7.17;;;;;;;16.58;100.00;100841.97;5027825;28;20726;-67
2023/06/25 02:00:44;;;;;;;11.40;7.83;;;;;;;16.57;100.00;100835.72;5030197;28;20211;-67
2023/06/25 02:03:11;;;;;;;9.97;8.30;;;;;;;16.50;100.00;100839.31;5024823;28;20331;-67
2023/06/25 02:05:37;;;;;;;9.57;7.53;;;;;;;16.42;100.00;100833.13;5028625;28;20223;-67
2023/06/25 02:08:04;;;;;;;8.90;7.90;;;;;;;16.38;100.00;100827.75;5026672;28;20211;-67
2023/06/25 02:10:32;;;;;;;11.43;8.20;;;;;;;16.43;100.00;100829.56;5021951;28;20211;-67
2023/06/25 02:12:59;;;;;;;10.93;7.37;;;;;;;16.41;100.00;100831.34;5048027;23;20230;-68
2023/06/25 02:15:25;;;;;;;10.30;8.00;;;;;;;16.33;100.00;100834.91;5024410;28;20580;-68
2023/06/25 02:17:51;;;;;;;9.07;7.57;;;;;;;16.25;100.00;100830.47;5017821;28;20196;-68
2023/06/25 02:20:19;;;;;;;9.47;7.73;;;;;;;16.30;100.00;100830.47;5027217;28;20253;-68
2023/06/25 02:22:47;;;;;;;8.30;6.80;;;;;;;16.35;100.00;100827.78;5028300;28;20222;-67
2023/06/25 02:25:14;;;;;;;10.07;7.50;;;;;;;16.35;100.00;100825.09;5025393;28;20202;-68
2023/06/25 02:27:40;;;;;;;8.27;7.20;;;;;;;16.49;100.00;100825.97;5027366;28;20576;-68
2023/06/25 02:30:07;;;;;;;8.57;7.33;;;;;;;16.46;100.00;100821.53;5021334;28;20206;-67
2023/06/25 02:32:33;;;;;;;10.60;8.03;;;;;;;16.33;100.00;100829.56;5028852;28;20223;-68
2023/06/25 02:35:00;;;;;;;12.47;7.63;;;;;;;16.27;100.00;100826.03;5026602;28;20210;-68
2023/06/25 02:37:26;;;;;;;11.27;7.67;;;;;;;16.20;100.00;100824.25;5023681;28;20669;-68
2023/06/25 02:39:53;;;;;;;12.30;7.70;;;;;;;16.12;100.00;100831.41;5022884;28;20192;-68
2023/06/25 02:42:19;;;;;;;9.57;7.90;;;;;;;16.05;100.00;100832.31;5024209;28;20215;-68
2023/06/25 02:44:46;;;;;;;10.23;8.50;;;;;;;15.95;100.00;100827.88;5017292;28;20208;-68
2023/06/25 02:47:12;;;;;;;9.93;7.53;;;;;;;15.90;100.00;100829.66;5023875;28;20192;-68
2023/06/25 02:49:38;;;;;;;13.13;8.83;;;;;;;15.90;100.00;100819.88;5022599;28;20196;-68
2023/06/25 02:52:05;;;;;;;9.70;8.00;;;;;;;16.07;100.00;100822.53;5018369;28;20219;-68
2023/06/25 02:54:31;;;;;;;9.03;7.50;;;;;;;16.05;100.00;100815.41;5012479;28;20200;-68
2023/06/25 02:56:58;;;;;;;12.73;7.93;;;;;;;16.10;100.00;100827.84;5024512;28;20215;-68
2023/06/25 02:59:24;;;;;;;9.97;8.70;;;;;;;16.07;100.00;100825.19;5027572;28;20218;-68
2023/06/25 03:01:50;;;;;;;10.20;7.73;;;;;;;16.01;100.00;100832.31;5023353;28;20222;-68
2023/06/25 03:04:17;;;;;;;10.13;7.70;;;;;;;16.01;100.00;100825.22;5024039;28;20831;-68
2023/06/25 03:06:43;;;;;;;9.33;7.80;;;;;;;15.96;100.00;100819.84;5017894;28;20238;-68
2023/06/25 03:09:10;;;;;;;10.10;7.87;;;;;;;15.91;100.00;100823.41;5018223;28;20623;-68
2023/06/25 03:11:36;;;;;;;9.60;7.43;;;;;;;15.89;100.00;100820.75;5021824;28;20749;-68
2023/06/25 03:14:02;;;;;;;10.03;8.57;;;;;;;15.85;100.00;100823.44;5022012;28;20199;-68
2023/06/25 03:16:29;;;;;;;10.33;8.53;;;;;;;15.88;100.00;100827.00;5023798;28;20216;-68
2023/06/25 03:18:55;;;;;;;9.80;8.20;;;;;;;15.85;100.00;100818.09;5022788;28;20200;-68
2023/06/25 03:21:22;;;;;;;12.23;9.17;;;;;;;15.88;100.00;100816.31;5024726;28;20303;-68
2023/06/25 03:23:48;;;;;;;10.03;8.20;;;;;;;15.93;100.00;100822.53;5020989;28;20198;-68
2023/06/25 03:26:14;;;;;;;10.93;7.87;;;;;;;16.12;100.00;100811.81;5024049;28;20195;-67
2023/06/25 03:28:41;;;;;;;10.60;8.60;;;;;;;16.17;100.00;100818.94;5021053;28;20203;-68
2023/06/25 03:31:07;;;;;;;11.70;8.63;;;;;;;16.17;100.00;100816.25;5025937;28;20204;-68
2023/06/25 03:33:34;;;;;;;13.67;8.77;;;;;;;16.13;100.00;100822.50;5024789;28;20208;-68
2023/06/25 03:36:00;;;;;;;11.27;8.80;;;;;;;16.16;100.00;100818.94;5025228;28;20211;-68
2023/06/25 03:38:26;;;;;;;13.47;9.43;;;;;;;16.09;100.00;100818.06;5021373;28;20280;-68
2023/06/25 03:40:53;;;;;;;10.70;8.30;;;;;;;16.05;100.00;100812.72;5022165;28;20199;-68
2023/06/25 03:43:19;;;;;;;11.53;8.90;;;;;;;16.11;100.00;100813.59;5019249;28;20217;-68
2023/06/25 03:45:46;;;;;;;10.37;8.53;;;;;;;16.08;100.00;100816.28;5025431;28;20207;-68
2023/06/25 03:48:12;;;;;;;10.33;8.53;;;;;;;16.10;100.00;100811.81;5022469;28;20566;-68
2023/06/25 03:50:39;;;;;;;13.27;8.77;;;;;;;16.16;100.00;100808.25;5020812;28;20294;-68
2023/06/25 03:53:05;;;;;;;11.70;8.60;;;;;;;16.23;100.00;100810.88;5014537;28;20211;-68
2023/06/25 03:55:31;;;;;;;13.97;8.87;;;;;;;16.35;100.00;100807.28;5018032;28;20568;-68
2023/06/25 03:57:58;;;;;;;11.13;8.47;;;;;;;16.37;100.00;100815.28;5024329;28;20278;-68
2023/06/25 04:00:24;;;;;;;10.67;8.43;;;;;;;16.47;100.00;100809.03;5025721;28;20298;-68
2023/06/25 04:02:51;;;;;;;12.07;9.20;;;;;;;16.47;100.00;100809.03;5025364;28;20273;-68
2023/06/25 04:05:17;;;;;;;13.00;8.87;;;;;;;16.52;100.00;100802.78;5018932;28;20193;-68
2023/06/25 04:07:43;;;;;;;14.00;9.27;;;;;;;16.53;100.00;100814.34;5025809;28;20206;-68
2023/06/25 04:10:10;;;;;;;12.90;9.07;;;;;;;16.55;100.00;100809.88;5024974;28;20685;-68
2023/06/25 04:12:36;;;;;;;11.47;8.73;;;;;;;16.54;100.00;100810.78;5018059;28;20246;-68
2023/06/25 04:15:03;;;;;;;14.27;8.80;;;;;;;16.55;100.00;100812.56;5018571;28;20196;-68
2023/06/25 04:17:29;;;;;;;11.20;8.50;;;;;;;16.63;100.00;100812.53;5018808;28;20700;-68
2023/06/25 04:19:56;;;;;;;14.40;9.37;;;;;;;16.74;100.00;100816.94;5025326;28;20717;-68
2023/06/25 04:22:22;;;;;;;12.60;8.57;;;;;;;16.72;100.00;100809.84;5024408;28;20215;-68
2023/06/25 04:24:49;;;;;;;10.63;8.70;;;;;;;16.86;100.00;100798.19;5027084;28;20199;-68
2023/06/25 04:27:15;;;;;;;11.23;9.13;;;;;;;16.95;100.00;100805.25;5024809;28;20652;-68
2023/06/25 04:29:41;;;;;;;11.37;8.70;;;;;;;16.98;100.00;100810.59;5020346;28;20204;-68
2023/06/25 04:32:08;;;;;;;10.03;8.33;;;;;;;17.01;100.00;100805.22;5026200;28;20310;-68
2023/06/25 04:34:35;;;;;;;10.27;8.17;;;;;;;17.07;100.00;100801.59;5025661;28;20227;-68
2023/06/25 04:37:01;;;;;;;11.50;9.03;;;;;;;17.15;100.00;100808.69;5024050;28;20660;-68
2023/06/25 04:39:28;;;;;;;13.07;8.30;;;;;;;17.28;100.00;100805.94;5019161;28;20196;-68
2023/06/25 04:41:54;;;;;;;11.57;9.10;;;;;;;17.44;100.00;100807.59;5024959;28;20216;-68
2023/06/25 04:44:20;;;;;;;9.70;8.27;;;;;;;17.56;100.00;100804.81;5020882;28;20203;-68
2023/06/25 04:46:47;;;;;;;10.17;8.17;;;;;;;17.60;100.00;100808.34;5019849;28;20192;-68
2023/06/25 04:49:15;;;;;;;12.97;8.57;;;;;;;17.73;100.00;100805.59;5023118;28;20273;-68
2023/06/25 04:51:45;;;;;;;9.60;7.97;;;;;;;17.88;100.00;100800.97;5019532;28;20246;-68
2023/06/25 04:54:12;;;;;;;10.57;7.80;;;;;;;17.90;100.00;100809.91;5020716;28;20202;-68
2023/06/25 04:56:38;;;;;;;9.57;8.37;;;;;;;18.04;100.00;100813.34;5020874;28;20457;-68
2023/06/25 04:59:07;;;;;;;9.87;7.80;;;;;;;18.09;100.00;100801.66;5026822;28;20269;-68
2023/06/25 05:01:33;;;;;;;10.43;7.77;;;;;;;18.14;100.00;100809.66;5022801;28;20627;-68
2023/06/25 05:04:00;;;;;;;9.73;7.60;;;;;;;18.17;99.66;100799.78;5026276;28;20219;-68
2023/06/25 05:06:26;;;;;;;10.07;7.60;;;;;;;18.31;98.10;100804.09;5027623;28;20284;-68
2023/06/25 05:08:53;;;;;;;9.03;7.20;;;;;;;18.40;97.62;100804.88;5025602;28;20283;-68
2023/06/25 05:11:19;;;;;;;7.87;6.67;;;;;;;18.51;96.90;100807.44;5027521;28;20593;-68
2023/06/25 05:13:45;;;;;;;8.27;7.00;;;;;;;18.66;95.44;100803.69;5029545;28;20290;-68
2023/06/25 05:16:12;;;;;;;9.27;7.40;;;;;;;18.77;94.44;100810.69;5025790;28;20234;-68
2023/06/25 05:18:39;;;;;;;9.17;7.53;;;;;;;18.93;94.38;100808.69;5021139;28;20588;-68
2023/06/25 05:21:06;;;;;;;9.33;7.10;;;;;;;19.05;93.92;100811.19;5029072;28;20202;-68
2023/06/25 05:23:56;;;;;;;10.40;7.57;;;;;;;19.15;93.77;100811.06;5021794;28;21619;-68
2023/06/25 05:26:23;;;;;;;8.00;6.93;;;;;;;19.28;93.09;100807.28;5025092;28;20187;-68
2023/06/25 05:28:49;;;;;;;9.00;7.43;;;;;;;19.41;92.49;100812.44;5022557;28;20210;-68
2023/06/25 05:31:15;;;;;;;9.93;7.57;;;;;;;19.56;92.25;100811.31;5024496;28;20231;-68
2023/06/25 05:33:42;;;;;;;9.27;7.07;;;;;;;20.49;87.42;100808.75;5017959;28;20687;-68
2023/06/25 05:36:08;;;;;;;11.40;6.87;;;;;;;21.05;83.54;100803.94;5027034;28;20671;-68
2023/06/25 05:38:35;;;;;;;7.90;6.72;;;;;;;21.00;82.65;100811.25;5021872;28;20203;-68
2023/06/25 05:41:01;;;;;;;7.90;6.43;;;;;;;20.92;82.55;100808.72;5024055;28;20207;-68
2023/06/25 05:43:28;;;;;;;7.93;6.68;;;;;;;20.98;82.24;100805.00;5023408;28;20196;-68
2023/06/25 05:45:54;;;;;;;8.68;7.20;;;;;;;20.92;82.48;100809.59;5020991;28;20197;-68
2023/06/25 05:48:20;;;;;;;9.30;6.82;;;;;;;20.98;82.75;100810.38;5025001;28;20648;-68
2023/06/25 05:50:47;;;;;;;9.23;6.93;;;;;;;21.20;80.80;100814.34;5024237;28;20204;-68
2023/06/25 05:53:13;;;;;;;10.30;7.25;;;;;;;21.09;79.98;100811.91;5022602;28;20582;-68
2023/06/25 05:55:40;;;;;;;8.98;6.90;;;;;;;21.12;80.06;100810.94;5020616;28;20204;-68
2023/06/25 05:58:06;;;;;;;9.93;7.05;;;;;;;21.58;78.62;100811.66;5026528;28;20215;-68
2023/06/25 06:00:32;;;;;;;7.28;6.20;;;;;;;21.92;77.47;100813.47;5024981;28;20196;-68
2023/06/25 06:02:59;;;;;;;9.00;6.60;;;;;;;21.89;77.87;100817.16;5025027;28;21138;-68
2023/06/25 06:05:25;;;;;;;8.02;6.72;;;;;;;21.84;78.17;100811.00;5023248;28;20209;-68
2023/06/25 06:07:52;;;;;;;8.20;7.03;;;;;;;21.87;78.06;100812.72;5020749;28;20210;-68
2023/06/25 06:10:18;;;;;;;10.43;9.23;;;;;;;21.83;83.57;100809.22;5026386;28;20199;-68
2023/06/25 06:12:44;;;;;;;12.88;8.45;;;;;;;21.78;84.56;100821.06;5024161;28;20525;-68
2023/06/25 06:15:11;;;;;;;10.15;8.80;;;;;;;21.77;85.57;100814.78;5023883;28;20191;-68
2023/06/25 06:17:37;;;;;;;9.43;6.72;;;;;;;21.84;79.96;100815.50;5020000;28;20219;-68
2023/06/25 06:20:05;;;;;;;11.80;8.32;;;;;;;22.07;82.58;100820.34;5023351;28;20195;-68
2023/06/25 06:22:31;;;;;;;7.72;6.93;;;;;;;22.27;77.84;100809.88;5024993;28;20250;-68
2023/06/25 06:24:57;;;;;;;7.45;5.78;;;;;;;22.37;74.65;100813.19;5022219;28;20279;-68
2023/06/25 06:27:24;;;;;;;7.45;6.05;;;;;;;22.63;73.84;100820.53;5017476;28;20750;-68
2023/06/25 06:29:50;;;;;;;8.32;5.75;;;;;;;22.96;69.34;100816.88;5017614;28;20215;-68
2023/06/25 06:32:17;;;;;;;5.10;4.50;;;;;;;23.05;65.24;100813.00;5021544;28;20219;-68
2023/06/25 06:34:43;;;;;;;6.05;4.90;;;;;;;23.09;63.73;100814.66;5022305;28;20298;-68
2023/06/25 06:37:11;;;;;;;5.63;4.90;;;;;;;23.11;63.31;100819.09;5019415;28;20220;-68
2023/06/25 06:39:37;;;;;;;6.15;5.13;;;;;;;23.18;62.48;100805.38;5021953;28;20660;-68
2023/06/25 06:42:04;;;;;;;8.48;5.13;;;;;;;23.26;62.86;100811.44;5019675;28;20220;-68
2023/06/25 06:44:31;;;;;;;6.15;4.90;;;;;;;23.31;61.61;100810.34;5021946;28;20196;-68
2023/06/25 06:46:58;;;;;;;6.25;4.75;;;;;;;23.38;61.17;100811.91;5025464;28;20220;-68
2023/06/25 06:49:24;;;;;;;6.68;5.15;;;;;;;23.46;61.42;100811.66;5024219;28;20241;-68
2023/06/25 06:51:51;;;;;;;5.97;4.80;;;;;;;23.57;59.88;100808.63;5023383;28;20223;-68
2023/06/25 06:54:17;;;;;;;6.95;4.88;;;;;;;23.70;60.06;100808.19;5018573;28;20645;-68
2023/06/25 06:56:43;;;;;;;9.50;5.10;;;;;;;23.89;59.73;100813.84;5024203;28;20249;-68
2023/06/25 06:59:10;;;;;;;5.53;4.53;;;;;;;23.94;58.40;100816.38;5022111;28;20207;-68
2023/06/25 07:01:36;;;;;;;5.10;4.30;;;;;;;24.10;58.37;100806.81;5028069;28;20230;-68
2023/06/25 07:04:03;;;;;;;6.43;4.90;;;;;;;24.28;57.68;100810.69;5024639;28;20282;-68
2023/06/25 07:06:29;;;;;;;7.70;5.15;;;;;;;24.47;57.09;100813.63;5020818;28;20602;-68
2023/06/25 07:08:55;;;;;;;5.65;4.78;;;;;;;24.77;56.34;100811.56;5018562;28;20210;-68
2023/06/25 07:11:22;;;;;;;5.30;4.57;;;;;;;25.69;53.78;100811.53;5022725;28;20318;-68
2023/06/25 07:13:49;;;;;;;5.57;4.90;;;;;;;28.16;45.47;100811.59;5024075;28;20199;-67
2023/06/25 07:16:16;;;;;;;5.78;4.78;;;;;;;30.50;38.58;100815.47;5016752;28;20196;-68
2023/06/25 07:18:45;;;;;;;5.70;4.75;;;;;;;32.55;33.90;100819.16;5024332;28;20219;-68
2023/06/25 07:21:11;;;;;;;6.68;4.50;;;;;;;34.08;30.96;100817.78;5024297;28;20223;-68
2023/06/25 07:23:38;;;;;;;5.20;4.40;;;;;;;35.38;29.04;100821.09;5012225;28;20639;-68
2023/06/25 07:26:04;;;;;;;7.13;4.88;;;;;;;36.04;27.38;100819.19;5018167;28;20192;-68
2023/06/25 07:28:31;;;;;;;5.35;4.60;;;;;;;36.49;26.56;100817.06;5024207;28;20694;-67
2023/06/25 07:30:57;;;;;;;5.50;4.38;;;;;;;36.64;26.38;100831.38;5019924;28;20473;-68
2023/06/25 07:33:24;;;;;;;5.22;4.38;;;;;;;35.86;26.14;100818.88;5018503;28;20227;-67
2023/06/25 07:35:50;;;;;;;6.20;4.32;;;;;;;35.66;26.96;100812.28;5020525;28;20199;-67
2023/06/25 07:38:16;;;;;;;6.07;4.93;;;;;;;35.35;27.54;100816.72;5015381;28;20220;-68
2023/06/25 07:40:43;;;;;;;5.30;4.55;;;;;;;35.80;27.10;100811.09;5024285;28;20195;-67
2023/06/25 07:43:10;;;;;;;4.97;4.43;;;;;;;36.22;25.89;100808.41;5026061;28;20247;-68
2023/06/25 07:45:38;;;;;;;7.43;4.50;;;;;;;36.20;25.65;100818.72;5028392;28;20201;-67
2023/06/25 07:48:05;;;;;;;5.53;4.75;;;;;;;34.91;27.69;100808.50;5026293;28;20203;-68
2023/06/25 07:50:32;;;;;;;5.18;4.35;;;;;;;35.78;26.82;100813.97;5021311;28;20203;-68
2023/06/25 07:52:58;;;;;;;6.50;4.50;;;;;;;36.19;25.55;100814.19;5017394;28;20242;-68
2023/06/25 07:55:25;;;;;;;6.35;4.88;;;;;;;34.62;26.66;100810.81;5028182;28;20287;-67
2023/06/25 07:57:51;;;;;;;6.63;5.03;;;;;;;34.64;27.40;100809.69;5020769;28;20258;-67
2023/06/25 08:00:17;;;;;;;5.53;4.85;;;;;;;34.20;27.29;100803.06;5015034;28;20684;-68
2023/06/25 08:02:47;;;;;;;7.70;4.78;;;;;;;34.35;27.85;100805.63;5020881;28;20309;-68
2023/06/25 08:05:14;;;;;;;5.78;4.78;;;;;;;34.89;27.53;100807.75;5018189;28;20195;-68
2023/06/25 08:07:40;;;;;;;6.20;4.80;;;;;;;34.99;26.36;100800.47;5024792;28;20195;-68
2023/06/25 08:10:07;;;;;;;6.25;4.53;;;;;;;35.40;25.66;100803.44;5016839;28;20196;-68
2023/06/25 08:12:33;;;;;;;6.85;4.85;;;;;;;35.16;25.57;100800.81;5047752;22;20223;-65
2023/06/25 08:15:01;;;;;;;6.32;4.60;;;;;;;35.63;24.45;100797.88;5021922;28;20195;-65
2023/06/25 08:17:27;;;;;;;6.30;4.90;;;;;;;35.09;25.50;100796.81;5014264;28;20243;-65
2023/06/25 08:19:53;;;;;;;5.47;4.60;;;;;;;34.91;25.76;100798.34;5018087;28;20204;-65
2023/06/25 08:22:20;;;;;;;5.13;4.20;;;;;;;34.72;26.16;100793.41;5010379;28;20668;-66
2023/06/25 08:24:46;;;;;;;6.45;4.93;;;;;;;33.92;27.89;100800.72;4998180;28;20196;-64
2023/06/25 08:27:13;;;;;;;6.47;4.57;;;;;;;33.29;28.02;100796.34;5007965;28;20188;-65
2023/06/25 08:29:40;;;;;;;5.82;4.55;;;;;;;32.72;28.84;100792.25;4996500;28;20619;-65
2023/06/25 08:32:07;;;;;;;5.75;4.70;;;;;;;32.34;30.53;100794.13;5001481;28;20223;-66
2023/06/25 08:34:33;;;;;;;6.07;4.80;;;;;;;31.47;31.07;100797.34;5004980;28;20586;-65
2023/06/25 08:36:59;;;;;;;5.97;4.82;;;;;;;31.05;32.41;100793.69;5005145;28;20200;-66
2023/06/25 08:39:26;;;;;;;6.93;5.28;;;;;;;31.00;32.26;100792.25;5005283;28;20582;-66
2023/06/25 08:41:53;;;;;;;6.15;4.25;;;;;;;30.83;32.44;100783.28;5002912;28;20312;-65
2023/06/25 08:44:19;;;;;;;6.05;4.72;;;;;;;30.50;33.25;100788.13;5003138;28;20292;-65
2023/06/25 08:46:47;;;;;;;7.32;4.63;;;;;;;30.18;33.33;100782.81;5008938;28;20619;-65
2023/06/25 08:49:14;;;;;;;5.00;4.50;;;;;;;29.92;33.43;100791.69;5006075;28;20279;-65
2023/06/25 08:51:41;;;;;;;7.47;4.68;;;;;;;29.75;34.92;100778.19;5004337;28;20275;-69
2023/06/25 08:54:08;;;;;;;8.02;4.70;;;;;;;29.97;33.39;100784.09;4997806;28;20209;-68
2023/06/25 08:56:34;;;;;;;5.53;4.65;;;;;;;29.88;33.44;100780.06;5008544;28;20215;-69
2023/06/25 08:59:01;;;;;;;5.60;5.05;;;;;;;30.00;31.87;100786.63;5011709;28;20667;-68
2023/06/25 09:01:27;;;;;;;6.68;4.50;;;;;;;30.00;31.34;100770.22;5006830;28;20771;-70
2023/06/25 09:03:54;;;;;;;5.18;4.07;;;;;;;30.11;32.54;100772.38;5008252;28;20519;-71
2023/06/25 09:06:21;;;;;;;5.43;4.45;;;;;;;30.18;32.67;100769.16;5011042;28;20348;-72
2023/06/25 09:08:48;;;;;;;6.07;4.63;;;;;;;30.32;32.68;100765.53;5007978;28;20287;-70
2023/06/25 09:11:15;;;;;;;5.45;4.50;;;;;;;30.49;32.22;100769.97;5010180;28;20246;-71
2023/06/25 09:13:41;;;;;;;6.88;4.55;;;;;;;30.47;32.10;100763.72;5009149;28;20231;-71
2023/06/25 09:16:09;;;;;;;6.13;4.68;;;;;;;30.68;31.79;100765.09;5006614;28;20200;-70
2023/06/25 09:18:36;;;;;;;5.85;4.57;;;;;;;30.76;30.97;100765.47;5009055;28;20247;-71
2023/06/25 09:21:08;;;;;;;5.80;4.53;;;;;;;30.85;31.51;100761.31;5008439;28;20200;-72
2023/06/25 09:23:38;;;;;;;5.75;4.47;;;;;;;30.86;31.13;100754.84;5008630;28;20508;-70
2023/06/25 09:26:06;;;;;;;8.68;7.25;;;;;;;30.79;32.99;100756.19;5007630;28;20295;-70
2023/06/25 09:28:51;;;;;;;6.22;4.80;;;;;;;30.81;32.51;100749.66;5009011;28;20197;-71
2023/06/25 09:31:18;;;;;;;5.70;4.53;;;;;;;30.95;30.93;100747.91;5008756;28;20199;-72
2023/06/25 09:33:53;;;;;;;6.45;4.55;;;;;;;30.85;31.51;100740.28;5008440;28;20204;-71
2023/06/25 09:36:20;;;;;;;5.68;4.85;;;;;;;30.90;31.17;100744.59;5006973;28;20195;-70
2023/06/25 09:39:05;;;;;;;7.15;4.50;;;;;;;30.94;31.58;100738.81;5007413;28;20251;-72
2023/06/25 09:41:36;;;;;;;6.75;4.55;;;;;;;31.06;31.11;100735.25;5009010;28;20680;-70
2023/06/25 09:44:04;;;;;;;7.70;4.45;;;;;;;31.04;30.31;100728.13;5009219;28;20196;-71
2023/06/25 09:46:39;;;;;;;5.40;4.47;;;;;;;31.17;29.75;100729.09;5008194;28;20625;-70
2023/06/25 09:49:07;;;;;;;6.70;4.38;;;;;;;31.13;30.13;100716.56;5007070;28;20956;-70
2023/06/25 09:51:46;;;;;;;6.68;4.53;;;;;;;31.29;30.11;100720.06;5008713;28;20267;-71
2023/06/25 09:54:12;;;;;;;6.40;4.05;;;;;;;31.33;28.98;100716.16;5005716;28;20196;-71
2023/06/25 09:56:43;;;;;;;5.40;4.38;;;;;;;31.45;29.05;100715.31;5009169;28;20317;-71
2023/06/25 09:59:12;;;;;;;4.80;4.20;;;;;;;31.39;29.06;100717.59;5007759;28;20316;-71
2023/06/25 10:01:38;;;;;;;5.30;4.80;;;;;;;31.38;29.19;100713.09;5004105;28;20227;-70
2023/06/25 10:04:05;;;;;;;5.50;4.90;;;;;;;31.42;29.16;100718.25;5008217;28;20208;-71
2023/06/25 10:06:34;;;;;;;7.28;4.85;;;;;;;31.48;29.21;100716.94;5019156;28;20339;-71
2023/06/25 10:09:03;;;;;;;5.85;4.30;;;;;;;31.41;29.13;100710.16;5008312;28;20200;-71
2023/06/25 10:11:29;;;;;;;4.80;4.15;;;;;;;31.44;29.26;100708.06;5002814;28;20205;-70
2023/06/25 10:13:57;;;;;;;5.68;4.32;;;;;;;31.43;29.54;100714.53;5010189;28;20205;-71
2023/06/25 10:16:29;;;;;;;6.90;4.80;;;;;;;31.54;29.08;100708.31;5006893;28;20459;-70
2023/06/25 10:19:05;;;;;;;6.47;5.07;;;;;;;31.56;29.19;100705.47;4995238;28;20221;-73
2023/06/25 10:21:31;;;;;;;5.72;4.57;;;;;;;31.69;29.90;100696.31;5007249;28;20204;-71
2023/06/25 10:24:00;;;;;;;4.82;4.32;;;;;;;31.83;29.05;100691.75;5007691;28;20283;-70
2023/06/25 10:26:33;;;;;;;5.55;4.47;;;;;;;31.78;28.54;100692.97;5002927;28;20208;-70
2023/06/25 10:29:01;;;;;;;5.72;4.45;;;;;;;31.84;29.36;100694.38;4999648;28;20197;-70
2023/06/25 10:31:37;;;;;;;5.90;5.15;;;;;;;31.84;28.17;100691.66;4999258;28;20192;-70
2023/06/25 10:34:05;;;;;;;5.65;4.63;;;;;;;31.83;28.94;100687.16;5005323;28;20202;-70
2023/06/25 10:36:31;;;;;;;4.72;4.22;;;;;;;31.89;28.32;100681.25;5003668;28;20201;-70
2023/06/25 10:38:58;;;;;;;5.60;4.97;;;;;;;32.01;28.38;100680.34;5001670;28;20219;-71
2023/06/25 10:41:27;;;;;;;5.50;4.55;;;;;;;32.13;28.28;100675.00;5000807;28;20203;-72
2023/06/25 10:43:53;;;;;;;5.68;4.80;;;;;;;32.24;28.47;100667.75;4996849;28;20283;-72
2023/06/25 10:46:30;;;;;;;5.00;4.50;;;;;;;32.29;28.23;100678.41;5001620;28;20203;-70
2023/06/25 10:49:01;;;;;;;5.90;4.47;;;;;;;32.30;28.03;100667.34;5000373;28;20240;-70
2023/06/25 10:51:29;;;;;;;7.68;4.82;;;;;;;32.29;27.78;100661.97;5001290;28;20201;-71
2023/06/25 10:53:56;;;;;;;5.55;4.95;;;;;;;32.25;28.51;100661.31;5003598;28;20242;-70
2023/06/25 10:56:23;;;;;;;4.93;4.40;;;;;;;32.35;28.59;100654.16;5002016;28;20215;-70
2023/06/25 10:58:58;;;;;;;6.18;5.03;;;;;;;32.49;27.76;100657.78;5006481;28;20224;-70
2023/06/25 11:01:32;;;;;;;7.82;5.10;;;;;;;32.34;28.05;100659.75;5008550;28;20195;-70
2023/06/25 11:03:59;;;;;;;6.63;4.63;;;;;;;32.51;28.04;100650.31;5003750;28;20201;-69
2023/06/25 11:06:25;;;;;;;6.07;4.85;;;;;;;32.45;27.87;100648.91;4999509;28;20208;-69
2023/06/25 11:08:53;;;;;;;7.88;4.85;;;;;;;32.41;28.06;100641.88;4995233;28;20553;-69
2023/06/25 11:11:20;;;;;;;6.20;4.43;;;;;;;32.48;28.08;100658.78;5003777;28;20554;-70
2023/06/25 11:13:48;;;;;;;5.22;4.32;;;;;;;32.43;27.58;100645.41;5007416;28;20200;-69
2023/06/25 11:16:14;;;;;;;5.65;5.15;;;;;;;32.31;28.24;100646.28;5008399;28;20196;-69
2023/06/25 11:18:40;;;;;;;5.60;5.00;;;;;;;31.79;28.21;100642.66;5007132;28;20220;-70
2023/06/25 11:21:08;;;;;;;7.50;5.35;;;;;;;31.38;29.24;100628.22;5006608;28;20200;-70